createdAt,value
2019-01-06T00:01:10.636Z,101831.00
2019-01-06T00:04:14.943Z,101824.00
2019-01-06T00:07:02.801Z,101828.00
2019-01-06T00:09:50.586Z,101839.00
2019-01-06T00:12:54.898Z,101837.00
2019-01-06T00:15:53.384Z,101832.00
2019-01-06T00:18:45.502Z,101830.00
2019-01-06T00:21:37.686Z,101829.00
2019-01-06T00:24:29.843Z,101830.00
2019-01-06T00:27:17.712Z,101817.00
2019-01-06T00:30:15.775Z,101818.00
2019-01-06T00:33:06.984Z,101823.00
2019-01-06T00:35:54.730Z,101828.00
2019-01-06T00:38:42.321Z,101842.00
2019-01-06T00:41:30.200Z,101834.00
2019-01-06T00:44:19.420Z,101822.00
2019-01-06T00:47:13.256Z,101836.00
2019-01-06T00:50:03.127Z,101845.00
2019-01-06T00:52:58.115Z,101832.00
2019-01-06T00:55:45.989Z,101839.00
2019-01-06T00:58:33.760Z,101833.00
2019-01-06T01:01:28.571Z,101840.00
2019-01-06T01:04:16.310Z,101848.00
2019-01-06T01:07:03.797Z,101841.00
2019-01-06T01:09:52.038Z,101852.00
2019-01-06T01:12:47.395Z,101857.00
2019-01-06T01:15:34.761Z,101870.00
2019-01-06T01:18:33.110Z,101863.00
2019-01-06T01:21:31.372Z,101858.00
2019-01-06T01:24:19.175Z,101870.00
2019-01-06T01:27:14.218Z,101870.00
2019-01-06T01:30:02.353Z,101871.00
2019-01-06T01:32:57.438Z,101865.00
2019-01-06T01:36:01.768Z,101883.00
2019-01-06T01:38:53.671Z,101881.00
2019-01-06T01:41:41.847Z,101880.00
2019-01-06T01:44:49.304Z,101879.00
2019-01-06T01:47:45.203Z,101883.00
2019-01-06T01:50:33.263Z,101875.00
2019-01-06T01:53:16.951Z,101885.00
2019-01-06T01:56:08.923Z,101876.00
2019-01-06T01:59:07.097Z,101877.00
2019-01-06T02:01:54.747Z,101880.00
2019-01-06T02:04:46.795Z,101881.00
2019-01-06T02:07:37.541Z,101883.00
2019-01-06T02:10:45.007Z,101893.00
2019-01-06T02:13:32.885Z,101888.00
2019-01-06T02:16:20.669Z,101888.00
2019-01-06T02:19:03.004Z,101884.00
2019-01-06T02:22:01.127Z,101893.00
2019-01-06T02:24:53.034Z,101896.00
2019-01-06T02:27:40.709Z,101888.00
2019-01-06T02:30:44.761Z,101890.00
2019-01-06T02:33:32.473Z,101884.00
2019-01-06T02:36:16.548Z,101890.00
2019-01-06T02:39:07.464Z,101886.00
2019-01-06T02:41:55.376Z,101891.00
2019-01-06T02:44:43.645Z,101893.00
2019-01-06T02:47:43.778Z,101891.00
2019-01-06T02:50:38.944Z,101886.00
2019-01-06T02:53:26.735Z,101883.00
2019-01-06T02:56:21.753Z,101891.00
2019-01-06T02:59:16.952Z,101884.00
2019-01-06T03:02:23.350Z,101911.00
2019-01-06T03:05:10.938Z,101891.00
2019-01-06T03:08:05.563Z,101889.00
2019-01-06T03:10:53.338Z,101895.00
2019-01-06T03:13:41.633Z,101896.00
2019-01-06T03:16:39.625Z,101906.00
2019-01-06T03:19:28.853Z,101901.00
2019-01-06T03:22:16.577Z,101896.00
2019-01-06T03:25:04.413Z,101903.00
2019-01-06T03:27:52.430Z,101901.00
2019-01-06T03:30:39.612Z,101901.00
2019-01-06T03:33:28.865Z,101899.00
2019-01-06T03:36:27.603Z,101902.00
2019-01-06T03:39:15.461Z,101911.00
2019-01-06T03:42:03.174Z,101895.00
2019-01-06T03:44:51.254Z,101895.00
2019-01-06T03:47:34.639Z,101889.00
2019-01-06T03:50:30.349Z,101906.00
2019-01-06T03:53:36.576Z,101912.00
2019-01-06T03:56:24.476Z,101911.00
2019-01-06T03:59:12.028Z,101914.00
2019-01-06T04:02:07.001Z,101914.00
2019-01-06T04:04:59.127Z,101897.00
2019-01-06T04:07:40.773Z,101912.00
2019-01-06T04:10:35.846Z,101914.00
2019-01-06T04:13:37.373Z,101924.00
2019-01-06T04:16:26.588Z,101910.00
2019-01-06T04:19:27.493Z,101915.00
2019-01-06T04:22:28.903Z,101925.00
2019-01-06T04:25:18.709Z,101918.00
2019-01-06T04:28:09.181Z,101918.00
2019-01-06T04:31:01.307Z,101909.00
2019-01-06T04:33:59.529Z,101916.00
2019-01-06T04:36:57.772Z,101914.00
2019-01-06T04:40:01.743Z,101924.00
2019-01-06T04:42:46.331Z,101917.00
2019-01-06T04:45:50.691Z,101921.00
2019-01-06T04:48:31.367Z,101917.00
2019-01-06T04:51:23.433Z,101925.00
2019-01-06T04:54:24.692Z,101926.00
2019-01-06T04:57:19.955Z,101922.00
2019-01-06T05:00:07.653Z,101921.00
2019-01-06T05:03:06.942Z,101916.00
2019-01-06T05:06:06.060Z,101918.00
2019-01-06T05:08:55.251Z,101922.00
2019-01-06T05:11:43.036Z,101929.00
2019-01-06T05:14:37.593Z,101922.00
2019-01-06T05:17:19.469Z,101928.00
2019-01-06T05:20:09.908Z,101914.00
2019-01-06T05:22:57.894Z,101923.00
2019-01-06T05:25:56.078Z,101927.00
2019-01-06T05:28:44.117Z,101921.00
2019-01-06T05:31:48.976Z,101931.00
2019-01-06T05:34:40.950Z,101938.00
2019-01-06T05:37:29.026Z,101941.00
2019-01-06T05:40:33.324Z,101942.00
2019-01-06T05:43:31.575Z,101941.00
2019-01-06T05:46:38.745Z,101939.00
2019-01-06T05:49:35.167Z,101957.00
2019-01-06T05:52:42.557Z,101952.00
2019-01-06T05:55:37.350Z,101948.00
2019-01-06T05:58:32.785Z,101964.00
2019-01-06T06:01:20.550Z,101954.00
2019-01-06T06:04:08.306Z,101954.00
2019-01-06T06:06:56.272Z,101958.00
2019-01-06T06:09:52.292Z,101951.00
2019-01-06T06:12:42.018Z,101964.00
2019-01-06T06:15:30.040Z,101961.00
2019-01-06T06:18:28.018Z,101969.00
2019-01-06T06:21:22.969Z,101966.00
2019-01-06T06:24:10.897Z,101961.00
2019-01-06T06:26:58.515Z,101962.00
2019-01-06T06:29:55.968Z,101961.00
2019-01-06T06:32:43.664Z,101970.00
2019-01-06T06:35:41.307Z,101963.00
2019-01-06T06:38:29.137Z,101974.00
2019-01-06T06:41:10.858Z,101978.00
2019-01-06T06:44:03.222Z,101982.00
2019-01-06T06:46:51.356Z,101978.00
2019-01-06T06:49:38.912Z,101987.00
2019-01-06T06:52:33.974Z,101987.00
2019-01-06T06:55:23.166Z,101985.00
2019-01-06T06:58:31.344Z,101992.00
2019-01-06T07:01:43.630Z,101993.00
2019-01-06T07:04:31.710Z,101989.00
2019-01-06T07:07:19.216Z,101996.00
2019-01-06T07:10:11.068Z,101995.00
2019-01-06T07:12:59.016Z,101992.00
2019-01-06T07:15:50.844Z,102006.00
2019-01-06T07:18:42.492Z,102012.00
2019-01-06T07:21:30.212Z,102009.00
2019-01-06T07:24:26.932Z,102012.00
2019-01-06T07:27:34.078Z,102016.00
2019-01-06T07:30:26.109Z,102016.00
2019-01-06T07:33:33.446Z,102022.00
2019-01-06T07:36:21.062Z,102039.00
2019-01-06T07:39:16.274Z,102032.00
2019-01-06T07:42:07.097Z,102030.00
2019-01-06T07:45:14.480Z,102041.00
2019-01-06T07:47:57.348Z,102050.00
2019-01-06T07:50:48.444Z,102031.00
2019-01-06T07:53:37.666Z,102043.00
2019-01-06T07:56:29.717Z,102046.00
2019-01-06T07:59:22.750Z,102049.00
2019-01-06T08:02:05.673Z,102055.00
2019-01-06T08:04:53.530Z,102047.00
2019-01-06T08:07:42.860Z,102056.00
2019-01-06T08:10:32.134Z,102054.00
2019-01-06T08:13:27.477Z,102069.00
2019-01-06T08:16:34.692Z,102063.00
2019-01-06T08:19:36.316Z,102065.00
2019-01-06T08:22:40.812Z,102075.00
2019-01-06T08:25:30.348Z,102085.00
2019-01-06T08:28:18.537Z,102086.00
2019-01-06T08:31:04.623Z,102093.00
2019-01-06T08:33:54.089Z,102088.00
2019-01-06T08:36:42.414Z,102092.00
2019-01-06T08:39:34.423Z,102095.00
2019-01-06T08:42:26.540Z,102085.00
2019-01-06T08:45:18.691Z,102097.00
2019-01-06T08:48:05.302Z,102097.00
2019-01-06T08:51:06.674Z,102089.00
2019-01-06T08:53:55.044Z,102094.00
2019-01-06T08:56:44.603Z,102096.00
2019-01-06T08:59:32.804Z,102095.00
2019-01-06T09:02:25.760Z,102091.00
2019-01-06T09:05:08.511Z,102091.00
2019-01-06T09:08:00.889Z,102100.00
2019-01-06T09:10:56.149Z,102096.00
2019-01-06T09:13:48.534Z,102095.00
2019-01-06T09:16:36.584Z,102097.00
2019-01-06T09:19:24.696Z,102099.00
2019-01-06T09:22:12.559Z,102104.00
2019-01-06T09:25:11.075Z,102099.00
2019-01-06T09:27:59.231Z,102099.00
2019-01-06T09:30:48.693Z,102101.00
2019-01-06T09:33:47.027Z,102100.00
2019-01-06T09:36:48.553Z,102096.00
2019-01-06T09:39:38.163Z,102096.00
2019-01-06T09:42:27.815Z,102106.00
2019-01-06T09:45:24.895Z,102101.00
2019-01-06T09:48:12.943Z,102101.00
2019-01-06T09:51:08.144Z,102103.00
2019-01-06T09:54:15.986Z,102110.00
2019-01-06T09:57:15.055Z,102113.00
2019-01-06T10:00:16.565Z,102118.00
2019-01-06T10:03:11.781Z,102117.00
2019-01-06T10:06:19.137Z,102120.00
2019-01-06T10:09:22.553Z,102110.00
2019-01-06T10:12:20.903Z,102098.00
2019-01-06T10:15:10.669Z,102106.00
2019-01-06T10:17:59.865Z,102100.00
2019-01-06T10:21:04.038Z,102101.00
2019-01-06T10:24:02.194Z,102101.00
2019-01-06T10:26:53.387Z,102106.00
2019-01-06T10:29:51.936Z,102101.00
2019-01-06T10:32:42.480Z,102098.00
2019-01-06T10:35:36.693Z,102111.00
2019-01-06T10:38:26.952Z,102108.00
2019-01-06T10:41:21.999Z,102114.00
2019-01-06T10:44:09.997Z,102108.00
2019-01-06T10:47:14.878Z,102101.00
2019-01-06T10:50:04.506Z,102104.00
2019-01-06T10:53:01.760Z,102092.00
2019-01-06T10:55:49.553Z,102092.00
2019-01-06T10:58:37.616Z,102091.00
2019-01-06T11:01:38.850Z,102082.00
2019-01-06T11:04:40.398Z,102086.00
2019-01-06T11:07:28.509Z,102078.00
2019-01-06T11:10:27.281Z,102087.00
2019-01-06T11:13:27.876Z,102087.00
2019-01-06T11:16:26.093Z,102092.00
2019-01-06T11:19:13.871Z,102088.00
2019-01-06T11:22:05.000Z,102090.00
2019-01-06T11:25:00.467Z,102088.00
2019-01-06T11:27:55.058Z,102087.00
2019-01-06T11:30:56.307Z,102091.00
2019-01-06T11:33:57.902Z,102089.00
2019-01-06T11:36:59.153Z,102090.00
2019-01-06T11:39:54.392Z,102087.00
2019-01-06T11:42:46.085Z,102088.00
2019-01-06T11:45:40.891Z,102067.00
2019-01-06T11:48:30.733Z,102064.00
2019-01-06T11:51:29.117Z,102064.00
2019-01-06T11:54:20.985Z,102077.00
2019-01-06T11:57:30.277Z,102069.00
2019-01-06T12:00:09.393Z,102067.00
2019-01-06T12:03:01.591Z,102061.00
2019-01-06T12:05:53.881Z,102079.00
2019-01-06T12:08:41.919Z,102073.00
2019-01-06T12:11:50.293Z,102077.00
2019-01-06T12:14:40.025Z,102074.00
2019-01-06T12:17:41.435Z,102078.00
2019-01-06T12:20:30.735Z,102081.00
2019-01-06T12:23:18.415Z,102082.00
2019-01-06T12:26:13.590Z,102082.00
2019-01-06T12:29:01.511Z,102089.00
2019-01-06T12:32:02.958Z,102098.00
2019-01-06T12:35:01.091Z,102085.00
2019-01-06T12:37:51.204Z,102086.00
2019-01-06T12:40:49.430Z,102085.00
2019-01-06T12:43:45.755Z,102084.00
2019-01-06T12:46:47.096Z,102093.00
2019-01-06T12:49:42.364Z,102094.00
2019-01-06T12:52:31.709Z,102103.00
2019-01-06T12:55:20.969Z,102084.00
2019-01-06T12:58:13.037Z,102092.00
2019-01-06T13:01:14.426Z,102086.00
2019-01-06T13:04:02.449Z,102084.00
2019-01-06T13:06:51.925Z,102088.00
2019-01-06T13:09:42.454Z,102088.00
2019-01-06T13:12:30.267Z,102095.00
2019-01-06T13:15:31.858Z,102087.00
2019-01-06T13:18:20.085Z,102087.00
2019-01-06T13:21:05.266Z,102083.00
2019-01-06T13:24:06.506Z,102076.00
2019-01-06T13:27:02.812Z,102087.00
2019-01-06T13:29:52.170Z,102078.00
2019-01-06T13:32:50.248Z,102083.00
2019-01-06T13:35:45.871Z,102086.00
2019-01-06T13:38:44.166Z,102092.00
2019-01-06T13:41:39.174Z,102097.00
2019-01-06T13:44:28.496Z,102093.00
2019-01-06T13:47:12.531Z,102105.00
2019-01-06T13:50:10.358Z,102089.00
2019-01-06T13:53:05.554Z,102111.00
2019-01-06T13:56:09.899Z,102105.00
2019-01-06T13:58:58.118Z,102103.00
2019-01-06T14:01:52.994Z,102100.00
2019-01-06T14:04:41.763Z,102101.00
2019-01-06T14:07:39.960Z,102110.00
2019-01-06T14:10:22.882Z,102100.00
2019-01-06T14:13:17.811Z,102109.00
2019-01-06T14:16:05.852Z,102095.00
2019-01-06T14:18:50.603Z,102118.00
2019-01-06T14:21:48.840Z,102112.00
2019-01-06T14:24:36.814Z,102108.00
2019-01-06T14:27:24.759Z,102114.00
2019-01-06T14:30:32.060Z,102122.00
2019-01-06T14:33:20.089Z,102127.00
2019-01-06T14:36:09.417Z,102120.00
2019-01-06T14:39:10.787Z,102122.00
2019-01-06T14:42:00.488Z,102128.00
2019-01-06T14:44:51.748Z,102132.00
2019-01-06T14:48:00.496Z,102128.00
2019-01-06T14:50:49.748Z,102144.00
2019-01-06T14:54:08.532Z,102141.00
2019-01-06T14:57:00.536Z,102140.00
2019-01-06T14:59:48.568Z,102132.00
2019-01-06T15:02:36.532Z,102138.00
2019-01-06T15:05:22.050Z,102142.00
2019-01-06T15:08:26.595Z,102134.00
2019-01-06T15:11:22.039Z,102133.00
2019-01-06T15:14:14.023Z,102139.00
2019-01-06T15:17:00.008Z,102132.00
2019-01-06T15:19:49.188Z,102139.00
2019-01-06T15:22:41.299Z,102154.00
2019-01-06T15:25:35.480Z,102152.00
2019-01-06T15:28:23.157Z,102148.00
2019-01-06T15:31:15.069Z,102144.00
2019-01-06T15:34:04.211Z,102145.00
2019-01-06T15:36:59.250Z,102153.00
2019-01-06T15:39:48.390Z,102150.00
2019-01-06T15:42:41.026Z,102145.00
2019-01-06T15:45:35.105Z,102154.00
2019-01-06T15:48:24.378Z,102162.00
2019-01-06T15:51:12.485Z,102150.00
2019-01-06T15:54:10.518Z,102150.00
2019-01-06T15:57:14.860Z,102146.00
2019-01-06T16:00:02.037Z,102156.00
2019-01-06T16:02:57.335Z,102154.00
2019-01-06T16:05:47.721Z,102166.00
2019-01-06T16:08:39.981Z,102165.00
2019-01-06T16:11:38.171Z,102170.00
2019-01-06T16:14:39.509Z,102176.00
2019-01-06T16:17:34.975Z,102172.00
2019-01-06T16:20:27.335Z,102177.00
2019-01-06T16:23:15.229Z,102174.00
2019-01-06T16:26:03.058Z,102182.00
2019-01-06T16:28:51.161Z,102184.00
2019-01-06T16:31:42.899Z,102191.00
2019-01-06T16:34:30.724Z,102191.00
2019-01-06T16:37:18.719Z,102189.00
2019-01-06T16:40:06.466Z,102187.00
2019-01-06T16:43:01.850Z,102188.00
2019-01-06T16:45:56.986Z,102192.00
2019-01-06T16:48:44.665Z,102183.00
2019-01-06T16:51:42.583Z,102191.00
2019-01-06T16:54:31.829Z,102195.00
2019-01-06T16:57:19.479Z,102194.00
2019-01-06T17:00:05.888Z,102191.00
2019-01-06T17:02:53.750Z,102192.00
2019-01-06T17:05:41.656Z,102187.00
2019-01-06T17:08:46.075Z,102184.00
2019-01-06T17:11:42.929Z,102197.00
2019-01-06T17:14:41.090Z,102189.00
2019-01-06T17:17:36.207Z,102187.00
2019-01-06T17:20:35.883Z,102188.00
2019-01-06T17:23:43.491Z,102182.00
2019-01-06T17:26:27.651Z,102186.00
2019-01-06T17:29:15.622Z,102197.00
2019-01-06T17:32:10.877Z,102190.00
2019-01-06T17:34:58.951Z,102197.00
2019-01-06T17:37:47.421Z,102197.00
2019-01-06T17:40:36.678Z,102191.00
2019-01-06T17:43:26.991Z,102199.00
2019-01-06T17:46:28.195Z,102198.00
2019-01-06T17:49:20.041Z,102203.00
2019-01-06T17:52:08.094Z,102208.00
2019-01-06T17:55:00.172Z,102205.00
2019-01-06T17:57:47.973Z,102204.00
2019-01-06T18:00:35.776Z,102217.00
2019-01-06T18:03:26.518Z,102223.00
2019-01-06T18:06:28.013Z,102228.00
2019-01-06T18:09:26.281Z,102217.00
2019-01-06T18:12:11.201Z,102228.00
2019-01-06T18:14:58.928Z,102215.00
2019-01-06T18:18:00.119Z,102227.00
2019-01-06T18:20:48.438Z,102218.00
2019-01-06T18:23:52.835Z,102232.00
2019-01-06T18:26:40.713Z,102219.00
2019-01-06T18:29:28.847Z,102228.00
2019-01-06T18:32:32.969Z,102229.00
2019-01-06T18:35:28.217Z,102235.00
2019-01-06T18:38:11.810Z,102227.00
2019-01-06T18:41:16.081Z,102222.00
2019-01-06T18:44:05.896Z,102226.00
2019-01-06T18:46:53.862Z,102227.00
2019-01-06T18:49:42.452Z,102233.00
2019-01-06T18:52:43.689Z,102228.00
2019-01-06T18:55:35.726Z,102228.00
2019-01-06T18:58:23.511Z,102226.00
2019-01-06T19:01:11.653Z,102225.00
2019-01-06T19:03:59.547Z,102227.00
2019-01-06T19:06:51.534Z,102224.00
2019-01-06T19:09:58.887Z,102227.00
2019-01-06T19:12:49.644Z,102234.00
2019-01-06T19:15:35.181Z,102236.00
2019-01-06T19:18:24.203Z,102229.00
2019-01-06T19:21:15.048Z,102234.00
2019-01-06T19:24:22.563Z,102224.00
2019-01-06T19:27:10.541Z,102228.00
2019-01-06T19:29:59.815Z,102234.00
2019-01-06T19:32:57.996Z,102233.00
2019-01-06T19:35:47.357Z,102228.00
2019-01-06T19:38:35.334Z,102224.00
2019-01-06T19:41:27.203Z,102225.00
2019-01-06T19:44:34.549Z,102219.00
2019-01-06T19:47:22.541Z,102233.00
2019-01-06T19:50:11.817Z,102240.00
2019-01-06T19:53:06.851Z,102245.00
2019-01-06T19:56:14.037Z,102234.00
2019-01-06T19:59:06.081Z,102229.00
2019-01-06T20:01:57.030Z,102231.00
2019-01-06T20:04:47.731Z,102237.00
2019-01-06T20:07:41.641Z,102221.00
2019-01-06T20:10:45.899Z,102222.00
2019-01-06T20:13:33.884Z,102234.00
2019-01-06T20:16:21.727Z,102237.00
2019-01-06T20:19:20.922Z,102249.00
2019-01-06T20:22:10.203Z,102238.00
2019-01-06T20:24:53.303Z,102247.00
2019-01-06T20:27:41.235Z,102238.00
2019-01-06T20:30:45.733Z,102242.00
2019-01-06T20:33:52.200Z,102248.00
2019-01-06T20:36:40.115Z,102239.00
2019-01-06T20:39:44.899Z,102252.00
2019-01-06T20:42:41.774Z,102247.00
2019-01-06T20:45:29.496Z,102250.00
2019-01-06T20:48:18.468Z,102252.00
2019-01-06T20:51:06.274Z,102240.00
2019-01-06T20:54:10.887Z,102236.00
2019-01-06T20:57:09.429Z,102251.00
2019-01-06T20:59:58.754Z,102241.00
2019-01-06T21:02:56.996Z,102235.00
2019-01-06T21:05:56.531Z,102242.00
2019-01-06T21:08:53.064Z,102251.00
2019-01-06T21:11:50.691Z,102242.00
2019-01-06T21:14:52.242Z,102253.00
2019-01-06T21:17:40.183Z,102242.00
2019-01-06T21:20:29.388Z,102256.00
2019-01-06T21:23:18.688Z,102253.00
2019-01-06T21:26:10.964Z,102250.00
2019-01-06T21:29:03.264Z,102256.00
2019-01-06T21:31:55.454Z,102243.00
2019-01-06T21:34:56.823Z,102254.00
2019-01-06T21:37:48.833Z,102252.00
2019-01-06T21:40:48.663Z,102250.00
2019-01-06T21:43:46.920Z,102244.00
2019-01-06T21:46:45.137Z,102241.00
2019-01-06T21:49:36.969Z,102252.00
2019-01-06T21:52:32.036Z,102248.00
2019-01-06T21:55:36.333Z,102248.00
2019-01-06T21:58:31.462Z,102253.00
2019-01-06T22:01:21.088Z,102252.00
2019-01-06T22:04:10.398Z,102242.00
2019-01-06T22:06:59.720Z,102242.00
2019-01-06T22:09:52.974Z,102242.00
2019-01-06T22:12:48.004Z,102232.00
2019-01-06T22:15:28.015Z,102238.00
2019-01-06T22:18:23.549Z,102237.00
2019-01-06T22:21:11.602Z,102245.00
2019-01-06T22:24:09.924Z,102245.00
2019-01-06T22:27:11.233Z,102241.00
2019-01-06T22:30:00.508Z,102253.00
2019-01-06T22:33:04.860Z,102241.00
2019-01-06T22:36:08.940Z,102241.00
2019-01-06T22:38:58.142Z,102240.00
2019-01-06T22:41:45.978Z,102236.00
2019-01-06T22:44:34.170Z,102238.00
2019-01-06T22:47:26.404Z,102236.00
2019-01-06T22:50:23.632Z,102244.00
2019-01-06T22:53:14.189Z,102233.00
2019-01-06T22:56:18.499Z,102242.00
2019-01-06T22:59:13.735Z,102234.00
2019-01-06T23:02:01.786Z,102240.00
2019-01-06T23:05:03.170Z,102245.00
2019-01-06T23:08:01.128Z,102244.00
2019-01-06T23:10:59.468Z,102258.00
2019-01-06T23:13:47.387Z,102249.00
2019-01-06T23:16:35.426Z,102242.00
2019-01-06T23:19:27.600Z,102251.00
2019-01-06T23:22:15.693Z,102258.00
2019-01-06T23:25:04.301Z,102259.00
2019-01-06T23:27:59.352Z,102251.00
2019-01-06T23:30:43.260Z,102252.00
2019-01-06T23:33:41.572Z,102262.00
2019-01-06T23:36:29.404Z,102248.00
2019-01-06T23:39:18.648Z,102261.00
2019-01-06T23:42:06.626Z,102252.00
2019-01-06T23:44:54.479Z,102247.00
2019-01-06T23:47:42.318Z,102251.00
2019-01-06T23:50:21.809Z,102257.00
2019-01-06T23:53:13.848Z,102254.00
2019-01-06T23:56:05.874Z,102262.00
2019-01-06T23:58:53.939Z,102262.00
